Aérodrome :
LOGIN :

S'inscrire | Disclaimer

   EN    FR    IT 

 










Légende :    VFR   VFR Marginal   IFR   IFR Intensif   IFR Très Intensif
Visi : 
Plafond : 
>= 8 km
>= 3000ft
5 à 8 km
1000 à 3000 ft
1500m à 5 km
500 à 1000 ft
800 à 1500m
200 à 500 ft
< 800m
< 200 ft
Symboles :   Orages  Brouillard  Fortes neiges  Fortes précipitations  Vent > 20 kt
SIGMETs :   Divers  Orages  Givrage  Turbulence  Onde Orograph.  Cendres Volcan.







- Altitude de l'aérodrome : 295 ft
- Code IATA : BWE


EDVE - Braunschweig

DERNIER METAR :
  • 230750Z 28011KT 250V320 9999 SCT027 OVC034 18/16 Q1012

METARs EXPIRÉS :
  • 230720Z 28012KT 240V330 9999 FEW022 OVC038 19/17 Q1012
  • 230650Z 28011KT 240V320 9999 FEW019 OVC042 18/18 Q1011
  • 230620Z 28011KT 240V320 9999 FEW018 OVC035 18/18 Q1011
  • 230550Z 26011KT 230V300 9999 FEW015 SCT020 OVC031 17/17 Q1010
  • 230520Z 27009G19KT 240V300 9999 FEW015 SCT018 OVC021 17/17 Q1010

TAF TAF EDVE
Valide du 23 à 06h jusqu'au 23 à 15h UTC


230520Z 2306/2315 28010G20KT 9999 BKN035
PROB40
TEMPO 2306/2308 BKN014
TEMPO 2308/2313 29015G30KT
Pas de NOTAMs connus pour ce terrain.



MET'MAP, la Météo Aéronautique d'un coup d'oeil ! - Copyright ORBIFLY Décembre 2007 - Disclaimer

ORBIFLY MET'MAP TEAM :

Programmation & Développement : Alexandra Zaïnal
Conception & Développement : Baudouin d'Aumeries
Co-Programmation & Développement : Marc-Olivier Méhu
Soutien technique & logistique : Manuel Goepfert

Contact : metmap@orbifly.com




SOURCES & CREDITS :

   NOAA